sensor_id;sensor_type;location;lat;lon;timestamp;pressure;altitude;pressure_sealevel;temperature;humidity
6343;BME280;3204;42.698;23.298;2023-02-16T00:01:29;96151.56;;;2.46;75.22
6343;BME280;3204;42.698;23.298;2023-02-16T00:03:56;96151.22;;;2.43;75.70
6343;BME280;3204;42.698;23.298;2023-02-16T00:06:23;96154.94;;;2.42;76.46
6343;BME280;3204;42.698;23.298;2023-02-16T00:08:52;96150.16;;;2.44;75.45
6343;BME280;3204;42.698;23.298;2023-02-16T00:11:25;96152.38;;;2.47;76.03
6343;BME280;3204;42.698;23.298;2023-02-16T00:14:11;96150.41;;;2.42;76.07
6343;BME280;3204;42.698;23.298;2023-02-16T00:16:37;96148.63;;;2.36;76.58
6343;BME280;3204;42.698;23.298;2023-02-16T00:21:48;96150.09;;;2.21;75.37
6343;BME280;3204;42.698;23.298;2023-02-16T00:24:14;96146.34;;;2.10;74.96
6343;BME280;3204;42.698;23.298;2023-02-16T00:26:41;96154.44;;;2.04;75.22
6343;BME280;3204;42.698;23.298;2023-02-16T00:29:13;96152.75;;;2.09;76.29
6343;BME280;3204;42.698;23.298;2023-02-16T00:31:39;96144.03;;;2.14;75.43
6343;BME280;3204;42.698;23.298;2023-02-16T00:36:48;96151.81;;;2.15;76.69
6343;BME280;3204;42.698;23.298;2023-02-16T00:39:14;96147.28;;;2.16;75.83
6343;BME280;3204;42.698;23.298;2023-02-16T00:41:39;96142.41;;;2.13;75.13
6343;BME280;3204;42.698;23.298;2023-02-16T00:45:11;96152.81;;;2.03;76.01
6343;BME280;3204;42.698;23.298;2023-02-16T00:47:36;96152.59;;;2.04;76.19
6343;BME280;3204;42.698;23.298;2023-02-16T00:50:15;96153.13;;;1.95;75.45
6343;BME280;3204;42.698;23.298;2023-02-16T00:52:41;96151.34;;;2.07;75.33
6343;BME280;3204;42.698;23.298;2023-02-16T00:55:10;96150.00;;;1.98;75.92
6343;BME280;3204;42.698;23.298;2023-02-16T00:57:42;96145.31;;;1.93;75.96
6343;BME280;3204;42.698;23.298;2023-02-16T01:00:14;96142.13;;;2.03;76.17
6343;BME280;3204;42.698;23.298;2023-02-16T01:02:42;96149.75;;;1.99;76.64
6343;BME280;3204;42.698;23.298;2023-02-16T01:05:08;96148.13;;;1.98;76.20
6343;BME280;3204;42.698;23.298;2023-02-16T01:07:34;96140.38;;;2.08;75.42
6343;BME280;3204;42.698;23.298;2023-02-16T01:10:18;96137.38;;;1.87;76.22
6343;BME280;3204;42.698;23.298;2023-02-16T01:13:02;96137.25;;;1.82;76.75
6343;BME280;3204;42.698;23.298;2023-02-16T01:15:28;96136.66;;;1.80;75.98
6343;BME280;3204;42.698;23.298;2023-02-16T01:17:53;96136.66;;;1.80;75.12
6343;BME280;3204;42.698;23.298;2023-02-16T01:20:21;96136.19;;;1.83;75.21
6343;BME280;3204;42.698;23.298;2023-02-16T01:22:47;96138.69;;;1.66;75.66
6343;BME280;3204;42.698;23.298;2023-02-16T01:25:13;96128.81;;;1.67;76.51
6343;BME280;3204;42.698;23.298;2023-02-16T01:27:39;96125.84;;;1.57;76.49
6343;BME280;3204;42.698;23.298;2023-02-16T01:30:09;96124.84;;;1.69;76.54
6343;BME280;3204;42.698;23.298;2023-02-16T01:32:35;96118.09;;;1.67;75.96
6343;BME280;3204;42.698;23.298;2023-02-16T01:35:01;96115.88;;;1.64;75.64
6343;BME280;3204;42.698;23.298;2023-02-16T01:37:27;96124.34;;;1.61;75.84
6343;BME280;3204;42.698;23.298;2023-02-16T01:39:52;96116.78;;;1.58;76.08
6343;BME280;3204;42.698;23.298;2023-02-16T01:45:28;96112.91;;;1.54;75.79
6343;BME280;3204;42.698;23.298;2023-02-16T01:48:01;96107.13;;;1.57;75.70
6343;BME280;3204;42.698;23.298;2023-02-16T01:51:14;96098.75;;;1.53;76.45
6343;BME280;3204;42.698;23.298;2023-02-16T01:53:31;96103.66;;;1.38;76.59
6343;BME280;3204;42.698;23.298;2023-02-16T01:56:02;96109.97;;;1.44;76.25
6343;BME280;3204;42.698;23.298;2023-02-16T01:58:49;96107.81;;;1.34;75.86
6343;BME280;3204;42.698;23.298;2023-02-16T02:01:39;96100.47;;;1.30;76.34
6343;BME280;3204;42.698;23.298;2023-02-16T02:04:19;96093.50;;;1.29;76.13
6343;BME280;3204;42.698;23.298;2023-02-16T02:07:05;96103.06;;;1.18;77.21
6343;BME280;3204;42.698;23.298;2023-02-16T02:09:43;96109.66;;;1.34;76.28
6343;BME280;3204;42.698;23.298;2023-02-16T02:12:36;96107.75;;;1.41;76.66
6343;BME280;3204;42.698;23.298;2023-02-16T02:15:05;96102.63;;;1.39;76.24
6343;BME280;3204;42.698;23.298;2023-02-16T02:17:31;96098.47;;;1.25;76.22
6343;BME280;3204;42.698;23.298;2023-02-16T02:26:44;96092.91;;;1.27;77.62
6343;BME280;3204;42.698;23.298;2023-02-16T02:31:52;96095.31;;;1.46;76.94
6343;BME280;3204;42.698;23.298;2023-02-16T02:34:32;96092.50;;;1.41;76.17
6343;BME280;3204;42.698;23.298;2023-02-16T02:45:52;96093.41;;;1.17;76.64
6343;BME280;3204;42.698;23.298;2023-02-16T02:48:18;96088.91;;;1.18;76.17
6343;BME280;3204;42.698;23.298;2023-02-16T02:53:28;96092.59;;;1.35;75.28
6343;BME280;3204;42.698;23.298;2023-02-16T02:55:55;96098.84;;;1.29;74.82
6343;BME280;3204;42.698;23.298;2023-02-16T02:58:42;96101.28;;;1.12;75.40
6343;BME280;3204;42.698;23.298;2023-02-16T03:01:29;96103.16;;;1.12;76.09
6343;BME280;3204;42.698;23.298;2023-02-16T03:03:57;96109.81;;;1.03;76.51
6343;BME280;3204;42.698;23.298;2023-02-16T03:06:27;96106.91;;;1.04;76.52
6343;BME280;3204;42.698;23.298;2023-02-16T03:09:00;96096.38;;;1.09;76.05
6343;BME280;3204;42.698;23.298;2023-02-16T03:11:27;96106.59;;;0.94;76.68
6343;BME280;3204;42.698;23.298;2023-02-16T03:14:34;96105.00;;;1.11;75.99
6343;BME280;3204;42.698;23.298;2023-02-16T03:17:05;96107.94;;;1.03;76.37
6343;BME280;3204;42.698;23.298;2023-02-16T03:19:50;96100.69;;;0.92;76.58
6343;BME280;3204;42.698;23.298;2023-02-16T03:22:36;96106.16;;;0.97;76.48
6343;BME280;3204;42.698;23.298;2023-02-16T03:25:31;96103.22;;;1.05;75.95
6343;BME280;3204;42.698;23.298;2023-02-16T03:28:19;96102.25;;;1.00;75.99
6343;BME280;3204;42.698;23.298;2023-02-16T03:31:05;96103.88;;;1.01;76.06
6343;BME280;3204;42.698;23.298;2023-02-16T03:33:32;96098.00;;;0.92;77.23
6343;BME280;3204;42.698;23.298;2023-02-16T03:35:59;96093.47;;;1.11;76.08
6343;BME280;3204;42.698;23.298;2023-02-16T03:38:25;96087.25;;;0.99;76.69
6343;BME280;3204;42.698;23.298;2023-02-16T03:40:51;96088.59;;;0.90;77.13
6343;BME280;3204;42.698;23.298;2023-02-16T03:43:17;96090.16;;;0.97;77.16
6343;BME280;3204;42.698;23.298;2023-02-16T03:45:43;96097.25;;;1.03;77.40
6343;BME280;3204;42.698;23.298;2023-02-16T03:48:09;96095.13;;;1.12;76.83
6343;BME280;3204;42.698;23.298;2023-02-16T03:50:35;96101.41;;;0.99;76.47
6343;BME280;3204;42.698;23.298;2023-02-16T03:53:01;96096.97;;;0.93;76.81
6343;BME280;3204;42.698;23.298;2023-02-16T03:55:35;96097.03;;;0.87;76.45
6343;BME280;3204;42.698;23.298;2023-02-16T03:58:02;96096.66;;;0.83;77.18
6343;BME280;3204;42.698;23.298;2023-02-16T04:00:28;96097.63;;;0.89;77.19
6343;BME280;3204;42.698;23.298;2023-02-16T04:02:54;96095.41;;;0.86;77.06
6343;BME280;3204;42.698;23.298;2023-02-16T04:05:19;96100.06;;;0.90;77.26
6343;BME280;3204;42.698;23.298;2023-02-16T04:07:44;96096.53;;;0.96;77.21
6343;BME280;3204;42.698;23.298;2023-02-16T04:10:10;96089.78;;;0.94;77.67
6343;BME280;3204;42.698;23.298;2023-02-16T04:12:35;96081.00;;;0.87;77.46
6343;BME280;3204;42.698;23.298;2023-02-16T04:15:05;96090.22;;;0.91;78.26
6343;BME280;3204;42.698;23.298;2023-02-16T04:17:31;96085.41;;;0.81;77.73
6343;BME280;3204;42.698;23.298;2023-02-16T04:19:57;96086.13;;;0.88;78.12
6343;BME280;3204;42.698;23.298;2023-02-16T04:22:22;96093.97;;;0.83;78.50
6343;BME280;3204;42.698;23.298;2023-02-16T04:24:48;96084.72;;;0.86;78.52
6343;BME280;3204;42.698;23.298;2023-02-16T04:27:13;96085.91;;;0.90;77.88
6343;BME280;3204;42.698;23.298;2023-02-16T04:29:38;96083.25;;;0.90;78.48
6343;BME280;3204;42.698;23.298;2023-02-16T04:32:04;96081.56;;;0.95;77.50
6343;BME280;3204;42.698;23.298;2023-02-16T04:34:29;96073.47;;;0.84;77.98
6343;BME280;3204;42.698;23.298;2023-02-16T04:36:55;96076.84;;;0.91;77.54
6343;BME280;3204;42.698;23.298;2023-02-16T04:39:20;96080.47;;;0.78;77.93
6343;BME280;3204;42.698;23.298;2023-02-16T04:41:46;96097.28;;;0.61;78.38
6343;BME280;3204;42.698;23.298;2023-02-16T04:44:11;96091.22;;;0.72;78.19
6343;BME280;3204;42.698;23.298;2023-02-16T04:46:37;96092.19;;;0.77;78.17
6343;BME280;3204;42.698;23.298;2023-02-16T04:49:02;96092.78;;;0.79;77.73
6343;BME280;3204;42.698;23.298;2023-02-16T04:51:28;96088.75;;;0.70;77.56
6343;BME280;3204;42.698;23.298;2023-02-16T04:53:53;96099.44;;;0.70;78.07
6343;BME280;3204;42.698;23.298;2023-02-16T04:56:18;96100.00;;;0.79;77.28
6343;BME280;3204;42.698;23.298;2023-02-16T04:58:44;96105.72;;;0.57;77.99
6343;BME280;3204;42.698;23.298;2023-02-16T05:01:17;96105.09;;;0.62;77.76
6343;BME280;3204;42.698;23.298;2023-02-16T05:03:43;96100.69;;;0.68;77.98
6343;BME280;3204;42.698;23.298;2023-02-16T05:06:08;96103.41;;;0.86;77.13
6343;BME280;3204;42.698;23.298;2023-02-16T05:08:34;96105.09;;;0.80;77.00
6343;BME280;3204;42.698;23.298;2023-02-16T05:10:59;96106.88;;;0.68;77.11
6343;BME280;3204;42.698;23.298;2023-02-16T05:13:43;96113.47;;;0.66;77.09
6343;BME280;3204;42.698;23.298;2023-02-16T05:16:27;96110.63;;;0.61;76.93
6343;BME280;3204;42.698;23.298;2023-02-16T05:18:53;96108.06;;;0.47;77.07
6343;BME280;3204;42.698;23.298;2023-02-16T05:21:18;96116.44;;;0.51;77.12
6343;BME280;3204;42.698;23.298;2023-02-16T05:24:02;96115.19;;;0.53;76.97
6343;BME280;3204;42.698;23.298;2023-02-16T05:26:28;96113.19;;;0.49;77.53
6343;BME280;3204;42.698;23.298;2023-02-16T05:28:54;96117.09;;;0.71;76.81
6343;BME280;3204;42.698;23.298;2023-02-16T05:31:21;96117.44;;;0.57;77.46
6343;BME280;3204;42.698;23.298;2023-02-16T05:33:46;96121.16;;;0.56;77.49
6343;BME280;3204;42.698;23.298;2023-02-16T05:36:12;96115.41;;;0.52;77.58
6343;BME280;3204;42.698;23.298;2023-02-16T05:38:37;96120.00;;;0.70;77.00
6343;BME280;3204;42.698;23.298;2023-02-16T05:41:02;96126.75;;;0.72;77.37
6343;BME280;3204;42.698;23.298;2023-02-16T05:43:28;96119.94;;;0.76;76.99
6343;BME280;3204;42.698;23.298;2023-02-16T05:45:53;96127.44;;;0.86;76.52
6343;BME280;3204;42.698;23.298;2023-02-16T05:48:19;96130.78;;;0.81;77.14
6343;BME280;3204;42.698;23.298;2023-02-16T05:50:45;96138.28;;;0.66;77.36
6343;BME280;3204;42.698;23.298;2023-02-16T05:53:10;96129.91;;;1.77;82.07
6343;BME280;3204;42.698;23.298;2023-02-16T05:55:36;96131.19;;;1.57;76.72
6343;BME280;3204;42.698;23.298;2023-02-16T05:58:01;96131.66;;;1.36;77.41
6343;BME280;3204;42.698;23.298;2023-02-16T06:00:27;96137.28;;;1.28;76.32
6343;BME280;3204;42.698;23.298;2023-02-16T06:02:52;96140.09;;;1.15;77.13
6343;BME280;3204;42.698;23.298;2023-02-16T06:05:18;96143.50;;;1.04;77.17
6343;BME280;3204;42.698;23.298;2023-02-16T06:07:44;96150.31;;;1.00;77.46
6343;BME280;3204;42.698;23.298;2023-02-16T06:10:10;96154.25;;;0.97;77.22
6343;BME280;3204;42.698;23.298;2023-02-16T06:12:35;96157.50;;;0.99;76.93
6343;BME280;3204;42.698;23.298;2023-02-16T06:15:01;96152.25;;;0.93;77.08
6343;BME280;3204;42.698;23.298;2023-02-16T06:17:26;96153.03;;;0.93;77.31
6343;BME280;3204;42.698;23.298;2023-02-16T06:19:53;96156.31;;;0.95;77.49
6343;BME280;3204;42.698;23.298;2023-02-16T06:22:18;96164.72;;;0.99;77.99
6343;BME280;3204;42.698;23.298;2023-02-16T06:24:44;96167.38;;;0.99;77.67
6343;BME280;3204;42.698;23.298;2023-02-16T06:27:09;96168.16;;;0.81;78.48
6343;BME280;3204;42.698;23.298;2023-02-16T06:29:34;96165.13;;;0.96;78.09
6343;BME280;3204;42.698;23.298;2023-02-16T06:32:00;96162.19;;;0.79;78.42
6343;BME280;3204;42.698;23.298;2023-02-16T06:34:25;96170.09;;;0.68;78.80
6343;BME280;3204;42.698;23.298;2023-02-16T06:36:51;96172.59;;;0.63;79.65
6343;BME280;3204;42.698;23.298;2023-02-16T06:39:16;96165.84;;;0.60;80.01
6343;BME280;3204;42.698;23.298;2023-02-16T06:41:41;96158.56;;;0.74;79.82
6343;BME280;3204;42.698;23.298;2023-02-16T06:44:12;96169.31;;;0.85;80.38
6343;BME280;3204;42.698;23.298;2023-02-16T06:46:38;96169.94;;;1.30;81.91
6343;BME280;3204;42.698;23.298;2023-02-16T06:49:04;96172.53;;;1.36;80.70
6343;BME280;3204;42.698;23.298;2023-02-16T06:51:29;96177.16;;;1.47;81.14
6343;BME280;3204;42.698;23.298;2023-02-16T06:53:55;96178.41;;;1.45;79.91
6343;BME280;3204;42.698;23.298;2023-02-16T06:56:21;96175.50;;;1.46;80.28
6343;BME280;3204;42.698;23.298;2023-02-16T06:58:46;96177.56;;;1.26;79.95
6343;BME280;3204;42.698;23.298;2023-02-16T07:01:12;96175.16;;;1.43;79.86
6343;BME280;3204;42.698;23.298;2023-02-16T07:03:37;96174.84;;;1.51;80.24
6343;BME280;3204;42.698;23.298;2023-02-16T07:06:04;96170.16;;;1.64;79.29
6343;BME280;3204;42.698;23.298;2023-02-16T07:08:29;96168.75;;;1.62;78.64
6343;BME280;3204;42.698;23.298;2023-02-16T07:10:55;96159.53;;;1.76;79.12
6343;BME280;3204;42.698;23.298;2023-02-16T07:13:20;96158.13;;;1.73;78.45
6343;BME280;3204;42.698;23.298;2023-02-16T07:15:46;96156.72;;;1.71;78.26
6343;BME280;3204;42.698;23.298;2023-02-16T07:18:12;96147.59;;;1.78;79.25
6343;BME280;3204;42.698;23.298;2023-02-16T07:20:37;96147.44;;;2.21;78.06
6343;BME280;3204;42.698;23.298;2023-02-16T07:23:03;96145.94;;;2.77;76.72
6343;BME280;3204;42.698;23.298;2023-02-16T07:25:28;96140.13;;;3.15;75.41
6343;BME280;3204;42.698;23.298;2023-02-16T07:27:54;96142.22;;;3.47;73.46
6343;BME280;3204;42.698;23.298;2023-02-16T07:30:19;96143.47;;;3.68;72.82
6343;BME280;3204;42.698;23.298;2023-02-16T07:32:46;96152.75;;;4.16;71.03
6343;BME280;3204;42.698;23.298;2023-02-16T07:35:12;96149.50;;;4.42;70.69
6343;BME280;3204;42.698;23.298;2023-02-16T07:37:37;96141.25;;;4.77;69.13
6343;BME280;3204;42.698;23.298;2023-02-16T07:40:04;96145.97;;;5.03;68.43
6343;BME280;3204;42.698;23.298;2023-02-16T07:42:30;96142.38;;;5.14;67.16
6343;BME280;3204;42.698;23.298;2023-02-16T07:44:56;96149.97;;;4.84;67.80
6343;BME280;3204;42.698;23.298;2023-02-16T07:47:22;96150.34;;;4.76;67.21
6343;BME280;3204;42.698;23.298;2023-02-16T07:49:48;96147.28;;;5.17;67.20
6343;BME280;3204;42.698;23.298;2023-02-16T07:52:13;96148.72;;;5.08;67.42
6343;BME280;3204;42.698;23.298;2023-02-16T07:54:38;96148.91;;;5.56;66.36
6343;BME280;3204;42.698;23.298;2023-02-16T07:57:05;96146.41;;;5.87;65.25
6343;BME280;3204;42.698;23.298;2023-02-16T07:59:30;96156.94;;;5.89;64.03
6343;BME280;3204;42.698;23.298;2023-02-16T08:01:56;96154.47;;;6.30;63.59
6343;BME280;3204;42.698;23.298;2023-02-16T08:04:21;96155.13;;;6.16;63.42
6343;BME280;3204;42.698;23.298;2023-02-16T08:06:47;96152.63;;;6.09;63.29
6343;BME280;3204;42.698;23.298;2023-02-16T08:09:13;96151.28;;;6.33;63.34
6343;BME280;3204;42.698;23.298;2023-02-16T08:11:40;96164.69;;;6.28;62.15
6343;BME280;3204;42.698;23.298;2023-02-16T08:14:05;96154.81;;;6.34;63.08
6343;BME280;3204;42.698;23.298;2023-02-16T08:16:31;96158.81;;;6.31;62.50
6343;BME280;3204;42.698;23.298;2023-02-16T08:18:58;96158.09;;;6.41;61.77
6343;BME280;3204;42.698;23.298;2023-02-16T08:21:28;96164.16;;;6.53;61.72
6343;BME280;3204;42.698;23.298;2023-02-16T08:23:57;96164.41;;;5.82;63.22
6343;BME280;3204;42.698;23.298;2023-02-16T08:26:26;96166.41;;;5.75;63.87
6343;BME280;3204;42.698;23.298;2023-02-16T08:28:55;96161.81;;;5.54;64.10
6343;BME280;3204;42.698;23.298;2023-02-16T08:31:24;96171.34;;;5.61;64.87
6343;BME280;3204;42.698;23.298;2023-02-16T08:33:54;96167.81;;;5.61;64.33
6343;BME280;3204;42.698;23.298;2023-02-16T08:36:22;96158.34;;;5.75;63.96
6343;BME280;3204;42.698;23.298;2023-02-16T08:38:48;96164.22;;;5.72;64.66
6343;BME280;3204;42.698;23.298;2023-02-16T08:41:19;96164.78;;;5.74;64.27
6343;BME280;3204;42.698;23.298;2023-02-16T08:43:45;96166.31;;;6.08;62.89
6343;BME280;3204;42.698;23.298;2023-02-16T08:46:11;96172.56;;;6.83;62.46
6343;BME280;3204;42.698;23.298;2023-02-16T08:48:37;96165.97;;;7.00;61.09
6343;BME280;3204;42.698;23.298;2023-02-16T08:51:04;96169.91;;;7.19;59.65
6343;BME280;3204;42.698;23.298;2023-02-16T08:53:31;96163.34;;;7.10;59.76
6343;BME280;3204;42.698;23.298;2023-02-16T08:55:59;96157.84;;;6.95;59.77
6343;BME280;3204;42.698;23.298;2023-02-16T08:58:27;96162.25;;;7.38;58.39
6343;BME280;3204;42.698;23.298;2023-02-16T09:00:53;96158.63;;;7.64;57.83
6343;BME280;3204;42.698;23.298;2023-02-16T09:03:19;96154.72;;;7.45;59.21
6343;BME280;3204;42.698;23.298;2023-02-16T09:05:45;96144.47;;;7.10;59.89
6343;BME280;3204;42.698;23.298;2023-02-16T09:08:12;96154.41;;;7.78;59.19
6343;BME280;3204;42.698;23.298;2023-02-16T09:10:38;96162.88;;;7.55;58.83
6343;BME280;3204;42.698;23.298;2023-02-16T09:13:04;96161.50;;;8.45;57.38
6343;BME280;3204;42.698;23.298;2023-02-16T09:15:31;96163.25;;;9.26;54.93
6343;BME280;3204;42.698;23.298;2023-02-16T09:17:57;96159.19;;;9.49;54.14
6343;BME280;3204;42.698;23.298;2023-02-16T09:20:23;96151.06;;;9.44;52.83
6343;BME280;3204;42.698;23.298;2023-02-16T09:22:49;96153.47;;;8.85;54.20
6343;BME280;3204;42.698;23.298;2023-02-16T09:25:14;96147.28;;;9.15;54.08
6343;BME280;3204;42.698;23.298;2023-02-16T09:28:09;96144.22;;;9.76;53.07
6343;BME280;3204;42.698;23.298;2023-02-16T09:30:36;96140.13;;;10.04;52.32
6343;BME280;3204;42.698;23.298;2023-02-16T09:33:02;96136.97;;;9.32;53.37
6343;BME280;3204;42.698;23.298;2023-02-16T09:35:28;96136.84;;;10.02;52.73
6343;BME280;3204;42.698;23.298;2023-02-16T09:37:54;96134.41;;;10.15;51.62
6343;BME280;3204;42.698;23.298;2023-02-16T09:40:19;96138.06;;;9.21;53.38
6343;BME280;3204;42.698;23.298;2023-02-16T09:45:23;96124.28;;;9.02;54.00
6343;BME280;3204;42.698;23.298;2023-02-16T09:47:51;96131.56;;;8.82;54.37
6343;BME280;3204;42.698;23.298;2023-02-16T09:53:00;96118.56;;;7.92;56.57
6343;BME280;3204;42.698;23.298;2023-02-16T10:00:53;96103.41;;;8.63;55.82
6343;BME280;3204;42.698;23.298;2023-02-16T10:08:50;96092.06;;;8.61;55.61
6343;BME280;3204;42.698;23.298;2023-02-16T10:11:28;96102.06;;;8.85;54.51
6343;BME280;3204;42.698;23.298;2023-02-16T10:14:07;96092.06;;;8.86;54.43
6343;BME280;3204;42.698;23.298;2023-02-16T10:16:43;96086.66;;;8.66;55.07
6343;BME280;3204;42.698;23.298;2023-02-16T10:19:38;96080.69;;;8.84;54.80
6343;BME280;3204;42.698;23.298;2023-02-16T10:22:12;96075.22;;;8.24;56.32
6343;BME280;3204;42.698;23.298;2023-02-16T10:27:27;96072.78;;;7.66;57.80
6343;BME280;3204;42.698;23.298;2023-02-16T10:29:57;96067.63;;;7.54;58.18
6343;BME280;3204;42.698;23.298;2023-02-16T10:32:30;96059.75;;;7.48;58.47
6343;BME280;3204;42.698;23.298;2023-02-16T10:45:35;96058.03;;;7.37;59.19
6343;BME280;3204;42.698;23.298;2023-02-16T10:48:03;96050.84;;;7.52;59.28
6343;BME280;3204;42.698;23.298;2023-02-16T10:53:18;96039.59;;;7.70;57.38
6343;BME280;3204;42.698;23.298;2023-02-16T10:55:45;96037.78;;;7.86;58.06
6343;BME280;3204;42.698;23.298;2023-02-16T10:58:38;96030.78;;;7.90;57.74
6343;BME280;3204;42.698;23.298;2023-02-16T11:01:14;96023.97;;;7.82;58.24
6343;BME280;3204;42.698;23.298;2023-02-16T11:03:47;96021.00;;;7.84;57.90
6343;BME280;3204;42.698;23.298;2023-02-16T11:06:16;96023.72;;;7.89;57.96
6343;BME280;3204;42.698;23.298;2023-02-16T11:08:48;96016.13;;;7.71;58.65
6343;BME280;3204;42.698;23.298;2023-02-16T11:11:14;96015.91;;;7.92;58.48
6343;BME280;3204;42.698;23.298;2023-02-16T11:13:46;96015.63;;;7.94;58.15
6343;BME280;3204;42.698;23.298;2023-02-16T11:16:20;96009.19;;;8.00;57.86
6343;BME280;3204;42.698;23.298;2023-02-16T11:18:48;96013.53;;;8.11;57.22
6343;BME280;3204;42.698;23.298;2023-02-16T11:21:20;96008.75;;;8.33;57.19
6343;BME280;3204;42.698;23.298;2023-02-16T11:23:57;96006.03;;;8.63;56.54
6343;BME280;3204;42.698;23.298;2023-02-16T11:26:25;95990.34;;;8.55;56.52
6343;BME280;3204;42.698;23.298;2023-02-16T11:28:51;96000.63;;;8.48;56.86
6343;BME280;3204;42.698;23.298;2023-02-16T11:31:35;96003.34;;;8.38;56.36
6343;BME280;3204;42.698;23.298;2023-02-16T11:34:14;95997.63;;;8.39;57.22
6343;BME280;3204;42.698;23.298;2023-02-16T11:36:48;95993.06;;;8.50;56.38
6343;BME280;3204;42.698;23.298;2023-02-16T11:42:01;95982.78;;;8.57;55.59
6343;BME280;3204;42.698;23.298;2023-02-16T11:44:31;95974.94;;;8.75;54.64
6343;BME280;3204;42.698;23.298;2023-02-16T11:46:59;95981.41;;;8.89;55.01
6343;BME280;3204;42.698;23.298;2023-02-16T11:52:00;95976.78;;;9.10;55.41
6343;BME280;3204;42.698;23.298;2023-02-16T11:54:48;95978.38;;;9.21;54.50
6343;BME280;3204;42.698;23.298;2023-02-16T11:57:23;95962.69;;;9.23;54.08
6343;BME280;3204;42.698;23.298;2023-02-16T11:59:49;95965.34;;;9.33;53.36
6343;BME280;3204;42.698;23.298;2023-02-16T12:02:37;95965.38;;;9.28;54.01
6343;BME280;3204;42.698;23.298;2023-02-16T12:05:34;95957.22;;;9.33;53.78
6343;BME280;3204;42.698;23.298;2023-02-16T12:16:00;95941.69;;;9.58;53.00
6343;BME280;3204;42.698;23.298;2023-02-16T12:30:18;95925.50;;;9.92;51.67
6343;BME280;3204;42.698;23.298;2023-02-16T12:32:25;95920.03;;;10.02;51.59
6343;BME280;3204;42.698;23.298;2023-02-16T12:43:44;95910.06;;;10.31;50.33
6343;BME280;3204;42.698;23.298;2023-02-16T12:46:38;95910.53;;;10.43;50.45
6343;BME280;3204;42.698;23.298;2023-02-16T12:50:12;95908.88;;;10.47;50.62
6343;BME280;3204;42.698;23.298;2023-02-16T12:52:36;95901.06;;;10.40;51.02
6343;BME280;3204;42.698;23.298;2023-02-16T12:57:58;95896.97;;;10.71;49.78
6343;BME280;3204;42.698;23.298;2023-02-16T13:00:42;95893.97;;;10.73;49.63
6343;BME280;3204;42.698;23.298;2023-02-16T13:03:23;95889.59;;;10.77;49.13
6343;BME280;3204;42.698;23.298;2023-02-16T13:06:24;95885.72;;;10.83;49.76
6343;BME280;3204;42.698;23.298;2023-02-16T13:11:45;95882.63;;;11.18;48.57
6343;BME280;3204;42.698;23.298;2023-02-16T13:14:17;95886.72;;;11.39;47.97
6343;BME280;3204;42.698;23.298;2023-02-16T13:16:52;95877.97;;;11.65;47.47
6343;BME280;3204;42.698;23.298;2023-02-16T13:19:19;95878.88;;;11.98;46.97
6343;BME280;3204;42.698;23.298;2023-02-16T13:29:59;95864.63;;;13.02;44.82
6343;BME280;3204;42.698;23.298;2023-02-16T13:32:52;95861.44;;;12.95;44.54
6343;BME280;3204;42.698;23.298;2023-02-16T13:35:43;95853.09;;;13.05;44.79
6343;BME280;3204;42.698;23.298;2023-02-16T13:38:37;95852.09;;;13.41;43.41
6343;BME280;3204;42.698;23.298;2023-02-16T13:44:18;95847.66;;;14.16;42.94
6343;BME280;3204;42.698;23.298;2023-02-16T13:46:47;95846.28;;;14.41;42.78
6343;BME280;3204;42.698;23.298;2023-02-16T13:49:35;95851.63;;;14.68;41.37
6343;BME280;3204;42.698;23.298;2023-02-16T13:52:05;95846.59;;;14.92;41.06
6343;BME280;3204;42.698;23.298;2023-02-16T13:54:37;95844.16;;;14.82;40.81
6343;BME280;3204;42.698;23.298;2023-02-16T13:57:10;95845.38;;;15.06;40.25
6343;BME280;3204;42.698;23.298;2023-02-16T14:02:01;95838.47;;;15.48;40.43
6343;BME280;3204;42.698;23.298;2023-02-16T14:20:32;95838.13;;;15.02;39.65
6343;BME280;3204;42.698;23.298;2023-02-16T14:27:52;95821.38;;;15.34;38.71
6343;BME280;3204;42.698;23.298;2023-02-16T14:35:38;95829.78;;;15.46;38.64
6343;BME280;3204;42.698;23.298;2023-02-16T14:38:17;95822.41;;;15.55;38.72
6343;BME280;3204;42.698;23.298;2023-02-16T14:41:04;95825.78;;;15.43;38.79
6343;BME280;3204;42.698;23.298;2023-02-16T14:43:39;95820.41;;;15.30;39.29
6343;BME280;3204;42.698;23.298;2023-02-16T14:52:29;95815.91;;;14.64;39.84
6343;BME280;3204;42.698;23.298;2023-02-16T14:55:33;95826.75;;;14.47;40.02
6343;BME280;3204;42.698;23.298;2023-02-16T15:01:19;95817.44;;;13.91;40.35
6343;BME280;3204;42.698;23.298;2023-02-16T15:03:47;95811.69;;;13.92;41.08
6343;BME280;3204;42.698;23.298;2023-02-16T15:08:48;95811.34;;;13.72;40.99
6343;BME280;3204;42.698;23.298;2023-02-16T15:11:29;95814.81;;;13.64;41.99
6343;BME280;3204;42.698;23.298;2023-02-16T15:14:02;95815.41;;;13.61;42.34
6343;BME280;3204;42.698;23.298;2023-02-16T15:16:30;95816.03;;;13.58;42.91
6343;BME280;3204;42.698;23.298;2023-02-16T15:19:08;95814.81;;;13.50;43.22
6343;BME280;3204;42.698;23.298;2023-02-16T15:21:36;95822.22;;;13.50;43.22
6343;BME280;3204;42.698;23.298;2023-02-16T15:24:01;95813.03;;;13.32;43.29
6343;BME280;3204;42.698;23.298;2023-02-16T15:26:29;95814.88;;;13.23;43.40
6343;BME280;3204;42.698;23.298;2023-02-16T15:29:19;95806.69;;;13.10;43.47
6343;BME280;3204;42.698;23.298;2023-02-16T15:31:45;95813.66;;;13.02;43.61
6343;BME280;3204;42.698;23.298;2023-02-16T15:34:13;95806.25;;;12.89;43.92
6343;BME280;3204;42.698;23.298;2023-02-16T15:36:42;95807.19;;;12.85;44.24
6343;BME280;3204;42.698;23.298;2023-02-16T15:39:13;95801.94;;;12.75;44.29
6343;BME280;3204;42.698;23.298;2023-02-16T15:41:43;95810.28;;;12.65;44.44
6343;BME280;3204;42.698;23.298;2023-02-16T15:44:33;95802.31;;;12.55;44.76
6343;BME280;3204;42.698;23.298;2023-02-16T15:47:12;95804.97;;;12.41;45.00
6343;BME280;3204;42.698;23.298;2023-02-16T15:49:38;95807.59;;;12.33;45.27
6343;BME280;3204;42.698;23.298;2023-02-16T15:52:07;95801.94;;;12.29;45.33
6343;BME280;3204;42.698;23.298;2023-02-16T15:54:36;95808.97;;;12.17;45.70
6343;BME280;3204;42.698;23.298;2023-02-16T15:57:09;95813.22;;;12.04;46.03
6343;BME280;3204;42.698;23.298;2023-02-16T15:59:46;95807.75;;;11.91;46.22
6343;BME280;3204;42.698;23.298;2023-02-16T16:02:30;95807.78;;;11.72;46.97
6343;BME280;3204;42.698;23.298;2023-02-16T16:04:59;95816.41;;;11.56;47.48
6343;BME280;3204;42.698;23.298;2023-02-16T16:07:35;95806.47;;;11.46;48.42
6343;BME280;3204;42.698;23.298;2023-02-16T16:10:06;95809.88;;;11.38;48.55
6343;BME280;3204;42.698;23.298;2023-02-16T16:12:35;95820.63;;;11.25;48.85